Time;durP1;ratioP1;P1;durP2;ratioP2;P2;SDS_P1;SDS_P2;PMS_P1;PMS_P2;Temp;Humidity;BMP_temperature;BMP_pressure;BME280_temperature;BME280_humidity;BME280_pressure;Samples;Min_cycle;Max_cycle;Signal;HPM_P1;HPM_P2
2022/01/10 00:00:22;;;;;;;44.85;26.88;;;2.20;99.90;;;;;;5073871;28;20035;-69
2022/01/10 00:02:52;;;;;;;44.53;25.83;;;2.20;99.90;;;;;;5072981;28;20510;-69
2022/01/10 00:05:18;;;;;;;47.70;24.33;;;2.30;99.90;;;;;;5072243;28;20028;-69
2022/01/10 00:07:43;;;;;;;44.28;25.05;;;2.30;99.90;;;;;;5072670;28;20039;-69
2022/01/10 00:10:10;;;;;;;42.90;23.98;;;2.30;99.90;;;;;;5072695;28;20028;-68
2022/01/10 00:12:36;;;;;;;43.72;23.33;;;2.40;99.90;;;;;;5073000;28;20024;-69
2022/01/10 00:15:03;;;;;;;40.78;24.17;;;2.40;99.90;;;;;;5072227;28;20031;-69
2022/01/10 00:17:28;;;;;;;43.10;22.85;;;2.50;99.90;;;;;;5072627;28;20048;-69
2022/01/10 00:19:54;;;;;;;36.40;21.08;;;2.50;99.90;;;;;;5072638;28;20551;-69
2022/01/10 00:22:40;;;;;;;35.80;21.90;;;2.50;99.90;;;;;;5072638;28;20063;-69
2022/01/10 00:25:06;;;;;;;35.83;20.88;;;2.50;99.90;;;;;;5054175;28;20479;-68
2022/01/10 00:27:32;;;;;;;41.63;22.77;;;2.50;99.90;;;;;;5072213;28;20040;-68
2022/01/10 00:29:58;;;;;;;45.90;27.90;;;2.60;99.90;;;;;;5072048;28;20338;-68
2022/01/10 00:32:24;;;;;;;55.17;32.75;;;2.60;99.90;;;;;;5072728;28;20024;-68
2022/01/10 00:34:51;;;;;;;54.30;32.97;;;2.50;99.90;;;;;;5071559;28;20024;-69
2022/01/10 00:37:35;;;;;;;57.92;32.50;;;2.50;99.90;;;;;;5053619;28;20036;-68
2022/01/10 00:40:04;;;;;;;57.45;33.70;;;2.40;99.90;;;;;;5071864;28;20025;-68
2022/01/10 00:42:30;;;;;;;55.42;33.13;;;2.40;99.90;;;;;;5072431;28;20521;-68
2022/01/10 00:45:00;;;;;;;55.03;33.67;;;2.40;99.90;;;;;;5072303;28;20107;-68
2022/01/10 00:47:26;;;;;;;56.72;33.00;;;2.40;99.90;;;;;;5071961;28;20469;-69
2022/01/10 00:49:52;;;;;;;54.58;33.25;;;2.40;99.90;;;;;;5072732;28;20032;-69
2022/01/10 00:52:17;;;;;;;50.53;31.38;;;2.30;99.90;;;;;;5071849;28;20029;-69
2022/01/10 00:54:43;;;;;;;53.17;32.58;;;2.30;99.90;;;;;;5072020;28;20052;-68
2022/01/10 00:57:09;;;;;;;52.90;32.25;;;2.30;99.90;;;;;;5071830;28;20107;-69
2022/01/10 00:59:35;;;;;;;50.53;32.53;;;2.20;99.90;;;;;;5072229;28;20020;-68
2022/01/10 01:02:00;;;;;;;52.75;33.80;;;2.20;99.90;;;;;;5071696;28;20029;-68
2022/01/10 01:04:26;;;;;;;55.80;32.92;;;2.20;99.90;;;;;;5072373;28;20032;-68
2022/01/10 01:06:52;;;;;;;53.97;32.38;;;2.20;99.90;;;;;;5072072;28;20159;-68
2022/01/10 01:09:24;;;;;;;52.83;32.35;;;2.20;99.90;;;;;;5071585;28;20628;-68
2022/01/10 01:12:11;;;;;;;57.42;33.65;;;2.20;99.90;;;;;;5072064;28;20382;-68
2022/01/10 01:14:51;;;;;;;56.78;33.35;;;2.20;99.90;;;;;;5054061;28;20028;-68
2022/01/10 01:25:09;;;;;;;56.83;33.13;;;2.10;99.90;;;;;;5071486;28;20035;-68
2022/01/10 01:27:35;;;;;;;53.63;32.92;;;2.10;99.90;;;;;;5071861;28;20086;-69
2022/01/10 01:30:01;;;;;;;53.72;32.65;;;2.10;99.90;;;;;;5071450;28;20119;-69
2022/01/10 01:32:26;;;;;;;65.25;33.85;;;2.10;99.90;;;;;;5071933;28;20115;-68
2022/01/10 01:34:56;;;;;;;57.15;33.33;;;2.10;99.90;;;;;;5072149;28;20040;-69
2022/01/10 01:37:22;;;;;;;54.95;33.40;;;2.10;99.90;;;;;;5071484;28;20029;-68
2022/01/10 01:39:48;;;;;;;54.33;31.83;;;2.10;99.90;;;;;;5072472;28;20100;-68
2022/01/10 01:42:35;;;;;;;56.50;32.72;;;2.10;99.90;;;;;;5071840;28;20104;-69
2022/01/10 01:45:02;;;;;;;56.97;32.33;;;2.10;99.90;;;;;;5071536;28;20103;-69
2022/01/10 01:47:28;;;;;;;54.05;33.00;;;2.20;99.90;;;;;;5074503;28;20052;-69
2022/01/10 01:49:56;;;;;;;53.72;32.08;;;2.10;99.90;;;;;;5075356;28;20137;-68
2022/01/10 01:52:22;;;;;;;56.20;33.30;;;2.20;99.90;;;;;;5074711;28;20036;-68
2022/01/10 01:54:47;;;;;;;55.45;33.17;;;2.20;99.90;;;;;;5074946;28;20425;-69
2022/01/10 01:57:13;;;;;;;55.50;33.42;;;2.20;99.90;;;;;;5074453;28;20393;-69
2022/01/10 01:59:39;;;;;;;53.85;32.60;;;2.20;99.90;;;;;;5075159;28;20035;-69
2022/01/10 02:02:04;;;;;;;55.28;34.55;;;2.20;99.90;;;;;;5074230;28;20028;-69
2022/01/10 02:04:30;;;;;;;58.42;33.05;;;2.20;99.90;;;;;;5057049;28;20044;-68
2022/01/10 02:06:56;;;;;;;58.17;35.35;;;2.10;99.90;;;;;;5074904;28;20028;-68
2022/01/10 02:09:22;;;;;;;56.13;33.70;;;2.10;99.90;;;;;;5074251;28;20544;-68
2022/01/10 02:11:47;;;;;;;55.63;34.45;;;2.10;99.90;;;;;;5074985;28;20070;-69
2022/01/10 02:14:16;;;;;;;56.20;34.80;;;2.10;99.90;;;;;;5074378;28;20024;-69
2022/01/10 02:16:45;;;;;;;58.72;34.83;;;2.10;99.90;;;;;;5074823;28;20024;-69
2022/01/10 02:19:11;;;;;;;62.78;36.38;;;2.10;99.90;;;;;;5074013;28;20499;-69
2022/01/10 02:21:38;;;;;;;53.60;34.53;;;2.10;99.90;;;;;;5075053;28;20107;-69
2022/01/10 02:24:05;;;;;;;60.15;37.05;;;2.10;99.90;;;;;;5074116;28;20031;-69
2022/01/10 02:26:32;;;;;;;56.50;34.72;;;2.10;99.90;;;;;;5074655;28;20024;-69
2022/01/10 02:28:58;;;;;;;58.65;34.67;;;2.10;99.90;;;;;;5074787;28;20028;-69
2022/01/10 02:31:24;;;;;;;52.72;33.55;;;2.10;99.90;;;;;;5074173;28;20059;-70
2022/01/10 02:33:51;;;;;;;58.45;34.00;;;2.10;99.90;;;;;;5074641;28;20024;-70
2022/01/10 02:38:52;;;;;;;58.72;35.20;;;2.10;99.90;;;;;;5074526;28;20109;-68
2022/01/10 02:41:22;;;;;;;62.55;36.22;;;2.10;99.90;;;;;;5073905;28;20067;-68
2022/01/10 02:43:48;;;;;;;60.42;35.78;;;2.10;99.90;;;;;;5074030;28;20106;-68
2022/01/10 02:46:14;;;;;;;58.90;35.80;;;2.10;99.90;;;;;;5073746;28;20461;-67
2022/01/10 02:48:40;;;;;;;60.92;36.80;;;2.10;99.90;;;;;;5073734;28;20389;-69
2022/01/10 02:51:06;;;;;;;60.88;36.92;;;2.10;99.90;;;;;;5073615;28;20035;-68
2022/01/10 02:53:31;;;;;;;58.35;36.03;;;2.10;99.90;;;;;;5074470;28;20039;-69
2022/01/10 02:55:57;;;;;;;56.65;35.80;;;2.10;99.90;;;;;;5074064;28;20546;-68
2022/01/10 02:58:22;;;;;;;62.20;37.28;;;2.10;99.90;;;;;;5072697;28;20111;-69
2022/01/10 03:00:48;;;;;;;59.55;34.78;;;2.10;99.90;;;;;;5073985;28;20052;-69
2022/01/10 03:03:14;;;;;;;56.38;34.10;;;2.10;99.90;;;;;;5055496;28;20059;-68
2022/01/10 03:05:39;;;;;;;61.05;36.15;;;2.10;99.90;;;;;;5073650;28;20071;-69
2022/01/10 03:08:05;;;;;;;60.70;36.25;;;2.10;99.90;;;;;;5073966;28;20086;-69
2022/01/10 03:10:31;;;;;;;62.28;35.75;;;2.10;99.90;;;;;;5073263;28;20025;-69
2022/01/10 03:13:01;;;;;;;54.28;34.50;;;2.20;99.90;;;;;;5073722;28;20116;-69
2022/01/10 03:15:27;;;;;;;57.00;34.95;;;2.20;99.90;;;;;;5073197;28;20100;-69
2022/01/10 03:17:53;;;;;;;56.10;36.25;;;2.20;99.90;;;;;;5073638;28;20037;-69
2022/01/10 03:20:19;;;;;;;59.50;36.45;;;2.10;99.90;;;;;;5055349;28;20068;-69
2022/01/10 03:22:45;;;;;;;58.80;35.80;;;2.10;99.90;;;;;;5073665;28;20429;-70
2022/01/10 03:25:11;;;;;;;57.17;34.78;;;2.10;99.90;;;;;;5072963;28;20081;-68
2022/01/10 03:27:36;;;;;;;57.92;35.90;;;2.10;99.90;;;;;;5073397;28;20107;-69
2022/01/10 03:30:04;;;;;;;47.03;30.30;;;2.20;99.90;;;;;;5073111;28;20024;-68
2022/01/10 03:32:29;;;;;;;40.22;25.85;;;2.20;99.90;;;;;;5072858;28;20028;-69
2022/01/10 03:34:57;;;;;;;40.63;22.77;;;2.20;99.90;;;;;;5073438;28;20151;-68
2022/01/10 03:37:24;;;;;;;32.88;18.15;;;2.30;99.90;;;;;;5072740;28;20037;-69
2022/01/10 03:39:50;;;;;;;30.08;18.67;;;2.30;99.90;;;;;;5072856;28;20478;-69
2022/01/10 03:42:16;;;;;;;43.00;26.40;;;2.40;99.90;;;;;;5072950;28;20099;-69
2022/01/10 03:44:41;;;;;;;53.70;31.98;;;2.40;99.90;;;;;;5073136;28;20446;-69
2022/01/10 03:47:10;;;;;;;58.95;34.10;;;2.40;99.90;;;;;;5072783;28;20363;-69
2022/01/10 03:49:36;;;;;;;60.65;34.80;;;2.40;99.90;;;;;;5072988;28;20033;-69
2022/01/10 03:52:03;;;;;;;53.75;34.25;;;2.40;99.90;;;;;;5072884;28;20044;-69
2022/01/10 03:54:29;;;;;;;55.15;35.00;;;2.40;99.90;;;;;;5071919;28;20070;-69
2022/01/10 03:56:54;;;;;;;53.30;34.70;;;2.30;99.90;;;;;;5072633;28;20126;-69
2022/01/10 03:59:20;;;;;;;62.67;34.40;;;2.30;99.90;;;;;;5072403;28;20031;-69
2022/01/10 04:01:46;;;;;;;64.65;36.78;;;2.30;99.90;;;;;;5072575;28;20031;-69
2022/01/10 04:04:12;;;;;;;57.92;35.35;;;2.30;99.90;;;;;;5072245;28;20025;-69
2022/01/10 04:06:37;;;;;;;54.65;34.22;;;2.20;99.90;;;;;;5072774;28;20021;-69
2022/01/10 04:09:04;;;;;;;55.58;35.42;;;2.20;99.90;;;;;;5072584;28;20029;-69
2022/01/10 04:11:30;;;;;;;59.53;34.30;;;2.20;99.90;;;;;;5072199;28;20447;-68
2022/01/10 04:13:55;;;;;;;60.42;35.83;;;2.20;99.90;;;;;;5072621;28;20099;-68
2022/01/10 04:16:21;;;;;;;58.40;35.90;;;2.20;99.90;;;;;;5071823;28;20029;-68
2022/01/10 04:18:47;;;;;;;57.83;35.65;;;2.20;99.90;;;;;;5072512;28;20461;-68
2022/01/10 04:21:12;;;;;;;57.60;36.28;;;2.20;99.90;;;;;;5072066;28;20107;-68
2022/01/10 04:23:38;;;;;;;56.65;34.85;;;2.20;99.90;;;;;;5072733;28;20040;-69
2022/01/10 04:26:04;;;;;;;57.45;36.20;;;2.20;99.90;;;;;;5072508;28;20043;-68
2022/01/10 04:28:29;;;;;;;54.47;36.40;;;2.20;99.90;;;;;;5071991;28;20029;-67
2022/01/10 04:30:55;;;;;;;53.10;34.45;;;2.20;99.90;;;;;;5072480;28;20033;-68
2022/01/10 04:33:27;;;;;;;54.97;35.53;;;2.20;99.90;;;;;;5054037;28;20029;-69
2022/01/10 04:35:52;;;;;;;57.85;35.90;;;2.30;99.90;;;;;;5072630;28;20051;-69
2022/01/10 04:38:18;;;;;;;53.92;33.72;;;2.30;99.90;;;;;;5071929;28;20103;-69
2022/01/10 04:40:44;;;;;;;57.15;34.50;;;2.30;99.90;;;;;;5071510;28;20029;-69
2022/01/10 04:43:10;;;;;;;52.97;32.80;;;2.30;99.90;;;;;;5072178;28;20128;-68
2022/01/10 04:45:36;;;;;;;54.17;29.48;;;2.30;99.90;;;;;;5071847;28;20025;-68
2022/01/10 04:48:01;;;;;;;41.95;25.88;;;2.30;99.90;;;;;;5075065;28;20032;-69
2022/01/10 04:53:11;;;;;;;25.70;14.50;;;2.40;99.90;;;;;;5075535;28;20098;-69
2022/01/10 04:55:37;;;;;;;15.98;8.82;;;2.40;99.90;;;;;;5054113;28;20049;-69
2022/01/10 04:58:02;;;;;;;12.75;6.50;;;2.50;99.90;;;;;;5072093;28;20033;-69
2022/01/10 05:00:28;;;;;;;12.15;6.22;;;2.60;99.90;;;;;;5071376;28;20385;-69
2022/01/10 05:02:54;;;;;;;10.38;5.00;;;2.70;99.90;;;;;;5072029;28;20071;-69
2022/01/10 05:05:19;;;;;;;9.00;5.65;;;2.80;99.90;;;;;;5071872;28;20029;-69
2022/01/10 05:07:45;;;;;;;10.43;4.97;;;2.90;99.90;;;;;;5071816;28;20461;-69
2022/01/10 05:10:11;;;;;;;10.13;5.82;;;2.90;99.90;;;;;;5072112;28;20028;-69
2022/01/10 05:12:37;;;;;;;12.48;6.03;;;3.00;99.90;;;;;;5071282;28;20108;-69
2022/01/10 05:17:48;;;;;;;11.27;5.38;;;3.10;99.90;;;;;;5056654;28;20035;-69
2022/01/10 05:20:14;;;;;;;8.85;4.90;;;3.10;99.90;;;;;;5075491;28;20021;-69
2022/01/10 05:22:40;;;;;;;7.90;5.40;;;3.10;99.90;;;;;;5081651;28;20036;-69
2022/01/10 05:25:06;;;;;;;9.32;5.18;;;3.10;99.90;;;;;;5080356;28;20025;-69
2022/01/10 05:27:32;;;;;;;10.05;5.60;;;3.10;99.90;;;;;;5077140;28;20548;-69
2022/01/10 05:29:57;;;;;;;11.30;5.78;;;3.20;99.90;;;;;;5075399;28;20033;-69
2022/01/10 05:32:23;;;;;;;12.07;5.68;;;3.20;99.90;;;;;;5075176;28;20025;-69
2022/01/10 05:34:48;;;;;;;12.45;5.75;;;3.10;99.90;;;;;;5077757;28;20031;-69
2022/01/10 05:37:14;;;;;;;7.07;5.10;;;3.20;99.90;;;;;;5077591;28;20103;-69
2022/01/10 05:39:40;;;;;;;10.73;5.20;;;3.20;99.90;;;;;;5057934;28;20056;-69
2022/01/10 05:42:06;;;;;;;13.07;5.78;;;3.20;99.90;;;;;;5075519;28;20017;-69
2022/01/10 05:44:31;;;;;;;11.27;5.35;;;3.20;99.90;;;;;;5074858;28;20104;-69
2022/01/10 05:46:59;;;;;;;11.45;5.82;;;3.20;99.90;;;;;;5075280;28;20051;-69
2022/01/10 05:49:29;;;;;;;10.38;5.93;;;3.30;99.90;;;;;;5074413;28;20041;-69
2022/01/10 05:51:55;;;;;;;9.60;5.90;;;3.20;99.90;;;;;;5075225;28;20028;-68
2022/01/10 05:54:20;;;;;;;13.32;6.80;;;3.30;99.90;;;;;;5074174;28;20120;-68
2022/01/10 05:56:46;;;;;;;13.23;6.75;;;3.30;99.90;;;;;;5074683;28;20052;-69
2022/01/10 05:59:12;;;;;;;11.10;7.40;;;3.30;99.90;;;;;;5074145;28;20284;-69
2022/01/10 06:01:38;;;;;;;16.40;7.75;;;3.20;99.90;;;;;;5074096;28;20465;-70
2022/01/10 06:04:03;;;;;;;14.05;6.75;;;3.20;99.90;;;;;;5074921;28;20021;-69
2022/01/10 06:06:29;;;;;;;10.55;6.13;;;3.20;99.90;;;;;;5074436;28;20035;-69
2022/01/10 06:08:55;;;;;;;10.77;6.22;;;3.30;99.90;;;;;;5074473;28;20396;-69
2022/01/10 06:11:20;;;;;;;12.10;5.80;;;3.30;99.90;;;;;;5074145;28;20028;-69
2022/01/10 06:13:46;;;;;;;11.30;6.30;;;3.20;99.90;;;;;;5074072;28;20024;-70
2022/01/10 06:16:13;;;;;;;10.18;5.90;;;3.20;99.90;;;;;;5056247;28;20025;-70
2022/01/10 06:18:39;;;;;;;12.25;5.55;;;3.30;99.90;;;;;;5073920;28;20029;-68
2022/01/10 06:21:04;;;;;;;9.20;6.13;;;3.30;99.90;;;;;;5074257;28;20474;-69
2022/01/10 06:23:30;;;;;;;9.93;6.05;;;3.20;99.90;;;;;;5073429;28;20509;-69
2022/01/10 06:25:56;;;;;;;8.88;5.60;;;3.30;99.90;;;;;;5074313;28;20104;-69
2022/01/10 06:28:21;;;;;;;12.18;5.85;;;3.30;99.90;;;;;;5073302;28;20036;-69
2022/01/10 06:30:47;;;;;;;14.20;6.00;;;3.30;99.90;;;;;;5074326;28;20370;-70
2022/01/10 06:33:13;;;;;;;9.30;5.88;;;3.30;99.90;;;;;;5073186;28;20073;-69
2022/01/10 06:35:38;;;;;;;11.23;5.55;;;3.30;99.90;;;;;;5073429;28;20028;-70
2022/01/10 06:38:04;;;;;;;14.90;6.10;;;3.30;99.90;;;;;;5074495;28;20090;-69
2022/01/10 06:40:30;;;;;;;9.73;5.95;;;3.30;99.90;;;;;;5073578;28;20025;-69
2022/01/10 06:42:56;;;;;;;11.52;6.53;;;3.40;99.90;;;;;;5074370;28;20024;-70
2022/01/10 06:45:21;;;;;;;12.57;8.10;;;3.40;99.90;;;;;;5074230;28;20024;-70
2022/01/10 06:47:49;;;;;;;11.82;6.65;;;3.40;99.90;;;;;;5074126;28;20107;-69
2022/01/10 06:50:15;;;;;;;12.73;6.10;;;3.40;99.90;;;;;;5074125;28;20032;-70
2022/01/10 06:52:41;;;;;;;13.00;6.18;;;3.40;99.90;;;;;;5073506;28;20059;-69
2022/01/10 06:55:07;;;;;;;11.48;5.70;;;3.40;99.90;;;;;;5073728;28;20044;-70
2022/01/10 06:57:33;;;;;;;10.00;6.18;;;3.40;99.90;;;;;;5073459;28;20021;-71
2022/01/10 07:00:01;;;;;;;9.95;5.90;;;3.40;99.90;;;;;;5074087;28;20031;-70
2022/01/10 07:02:27;;;;;;;9.07;4.97;;;3.50;99.90;;;;;;5073452;28;20491;-69
2022/01/10 07:04:53;;;;;;;10.43;4.68;;;3.50;99.90;;;;;;5074035;28;20052;-70
2022/01/10 07:07:18;;;;;;;10.60;5.03;;;3.50;99.90;;;;;;5073607;28;20028;-70
2022/01/10 07:09:44;;;;;;;9.27;4.80;;;3.50;99.90;;;;;;5073307;28;20488;-70
2022/01/10 07:12:10;;;;;;;11.18;4.88;;;3.60;99.90;;;;;;5073416;28;20021;-70
2022/01/10 07:14:36;;;;;;;10.07;5.32;;;3.60;99.90;;;;;;5055196;28;20024;-70
2022/01/10 07:17:02;;;;;;;10.38;4.85;;;3.70;99.90;;;;;;5073591;28;20112;-69
2022/01/10 07:19:27;;;;;;;11.75;5.60;;;3.60;99.90;;;;;;5072959;28;20388;-69
2022/01/10 07:21:53;;;;;;;10.25;4.70;;;3.70;99.90;;;;;;5073421;28;20035;-70
2022/01/10 07:24:19;;;;;;;10.00;4.90;;;3.70;99.90;;;;;;5073566;28;20070;-70
2022/01/10 07:26:45;;;;;;;12.73;5.18;;;3.70;99.90;;;;;;5072903;28;20127;-69
2022/01/10 07:29:11;;;;;;;13.07;4.50;;;3.80;99.90;;;;;;5055246;28;20435;-70
2022/01/10 07:31:39;;;;;;;10.73;4.78;;;3.70;99.90;;;;;;5072823;28;20025;-70
2022/01/10 07:34:05;;;;;;;8.23;4.72;;;3.70;99.90;;;;;;5072904;28;20029;-70
2022/01/10 07:36:31;;;;;;;11.13;4.95;;;3.80;99.90;;;;;;5072684;28;20385;-69
2022/01/10 07:38:57;;;;;;;7.68;4.53;;;3.80;99.90;;;;;;5073093;28;20029;-71
2022/01/10 07:41:23;;;;;;;7.82;4.90;;;3.80;99.90;;;;;;5072738;28;20021;-70
2022/01/10 07:43:49;;;;;;;10.25;4.45;;;3.80;99.90;;;;;;5072011;28;20031;-70
2022/01/10 07:46:15;;;;;;;9.65;4.72;;;3.80;99.90;;;;;;5073280;28;20032;-70
2022/01/10 07:48:42;;;;;;;12.00;5.20;;;3.80;99.90;;;;;;5072193;28;20468;-70
2022/01/10 07:51:09;;;;;;;9.98;5.18;;;3.90;99.90;;;;;;5073002;28;20025;-70
2022/01/10 07:53:36;;;;;;;10.80;5.10;;;3.90;99.90;;;;;;5072290;28;20220;-70
2022/01/10 07:56:03;;;;;;;13.55;6.25;;;3.90;99.90;;;;;;5072792;28;20041;-70
2022/01/10 07:58:28;;;;;;;11.30;5.05;;;3.90;99.90;;;;;;5072246;28;20060;-69
2022/01/10 08:00:54;;;;;;;8.70;4.95;;;3.90;99.90;;;;;;5072829;28;20434;-70
2022/01/10 08:03:20;;;;;;;9.80;5.18;;;3.90;99.90;;;;;;5072796;28;20023;-70
2022/01/10 08:05:46;;;;;;;9.77;5.72;;;3.90;99.90;;;;;;5072454;28;20112;-68
2022/01/10 08:08:11;;;;;;;15.10;6.30;;;3.90;99.90;;;;;;5072326;28;20062;-69
2022/01/10 08:10:37;;;;;;;14.13;6.35;;;3.90;99.90;;;;;;5071896;28;20036;-68
2022/01/10 08:13:03;;;;;;;13.05;6.47;;;3.90;99.90;;;;;;5072600;28;20032;-69
2022/01/10 08:15:30;;;;;;;13.48;6.50;;;3.90;99.90;;;;;;5072732;28;20036;-69
2022/01/10 08:17:56;;;;;;;10.20;5.88;;;3.80;99.90;;;;;;5072555;28;20457;-69
2022/01/10 08:20:22;;;;;;;8.25;5.93;;;3.80;99.90;;;;;;5072082;28;20029;-69
2022/01/10 08:22:48;;;;;;;11.07;6.32;;;3.80;99.90;;;;;;5072347;28;20017;-70
2022/01/10 08:25:13;;;;;;;9.85;6.00;;;3.80;99.90;;;;;;5073982;28;20028;-70
2022/01/10 08:27:39;;;;;;;11.88;6.38;;;3.80;99.90;;;;;;5072507;28;20040;-69
2022/01/10 08:30:06;;;;;;;13.30;7.05;;;3.70;99.90;;;;;;5072780;28;20068;-70
2022/01/10 08:32:31;;;;;;;12.82;6.18;;;3.70;99.90;;;;;;5072007;28;20078;-69
2022/01/10 08:34:57;;;;;;;12.45;6.60;;;3.70;99.90;;;;;;5054789;28;20029;-68
2022/01/10 08:37:23;;;;;;;9.00;5.93;;;3.70;99.90;;;;;;5072462;28;20020;-68
2022/01/10 08:39:51;;;;;;;10.93;6.47;;;3.70;99.90;;;;;;5071965;28;20032;-69
2022/01/10 08:42:22;;;;;;;13.57;6.88;;;3.70;99.90;;;;;;5072451;28;20025;-68
2022/01/10 08:44:48;;;;;;;13.13;7.20;;;3.70;99.90;;;;;;5072474;28;20020;-68
2022/01/10 08:47:14;;;;;;;11.18;6.97;;;3.70;99.90;;;;;;5073056;28;20090;-69
2022/01/10 08:49:41;;;;;;;10.98;6.95;;;3.70;99.90;;;;;;5073046;28;20047;-68
2022/01/10 08:52:06;;;;;;;13.20;7.25;;;3.70;99.90;;;;;;5072624;28;20534;-68
2022/01/10 08:54:32;;;;;;;13.55;7.20;;;3.70;99.90;;;;;;5071643;28;20227;-68
2022/01/10 08:56:58;;;;;;;13.20;7.45;;;3.70;99.90;;;;;;5074304;28;20021;-69
2022/01/10 08:59:24;;;;;;;15.55;7.45;;;3.70;99.90;;;;;;5076088;28;20117;-69
2022/01/10 09:01:50;;;;;;;11.90;6.72;;;3.70;99.90;;;;;;5075849;28;20476;-68
2022/01/10 09:04:16;;;;;;;13.63;8.23;;;3.70;99.90;;;;;;5075829;28;20070;-69
2022/01/10 09:06:50;;;;;;;13.05;7.88;;;3.70;99.90;;;;;;5075560;28;20032;-68
2022/01/10 09:09:17;;;;;;;11.50;7.15;;;3.80;99.90;;;;;;5076028;28;20028;-70
2022/01/10 09:11:44;;;;;;;14.73;7.72;;;3.70;99.90;;;;;;5075167;28;20037;-69
2022/01/10 09:14:10;;;;;;;13.48;8.63;;;3.70;99.90;;;;;;5075949;28;20035;-69
2022/01/10 09:16:37;;;;;;;12.60;7.43;;;3.70;99.90;;;;;;5075325;28;20108;-68
2022/01/10 09:19:03;;;;;;;10.93;6.68;;;3.80;99.90;;;;;;5075762;28;20119;-69
2022/01/10 09:21:29;;;;;;;13.30;8.13;;;3.80;99.90;;;;;;5075768;28;20078;-69
2022/01/10 09:23:55;;;;;;;14.75;7.60;;;3.80;99.90;;;;;;5074903;28;20032;-69
2022/01/10 09:26:20;;;;;;;15.68;7.78;;;3.80;99.90;;;;;;5075960;28;20462;-69
2022/01/10 09:28:46;;;;;;;14.50;8.25;;;3.80;99.90;;;;;;5075226;28;20465;-68
2022/01/10 09:31:12;;;;;;;10.23;7.90;;;3.80;99.90;;;;;;5075559;28;20028;-70
2022/01/10 09:33:39;;;;;;;12.55;7.80;;;3.80;99.90;;;;;;5074958;28;20112;-69
2022/01/10 09:36:05;;;;;;;10.57;8.45;;;3.80;99.90;;;;;;5075608;28;20032;-69
2022/01/10 09:38:31;;;;;;;10.18;7.80;;;3.80;99.90;;;;;;5075140;28;20036;-69
2022/01/10 09:40:57;;;;;;;9.65;8.10;;;3.80;99.90;;;;;;5074688;28;20095;-69
2022/01/10 09:43:22;;;;;;;13.75;8.40;;;3.80;99.90;;;;;;5075448;28;20155;-69
2022/01/10 09:45:51;;;;;;;10.65;8.43;;;3.90;99.90;;;;;;5074819;28;20024;-69
2022/01/10 09:48:17;;;;;;;12.68;8.18;;;3.90;99.90;;;;;;5075251;28;20158;-69
2022/01/10 09:50:43;;;;;;;10.63;8.63;;;3.90;99.90;;;;;;5074464;28;20108;-69
2022/01/10 09:53:09;;;;;;;10.60;8.68;;;3.90;99.90;;;;;;5075006;28;20036;-69
2022/01/10 09:55:35;;;;;;;12.55;9.02;;;3.90;99.90;;;;;;5074671;28;20438;-69
2022/01/10 09:58:03;;;;;;;12.25;8.48;;;3.90;99.90;;;;;;5075113;28;20032;-69
2022/01/10 10:00:29;;;;;;;13.70;9.75;;;3.90;99.90;;;;;;5075128;28;20031;-69
2022/01/10 10:02:55;;;;;;;12.70;9.85;;;3.90;99.90;;;;;;5074211;28;20104;-69
2022/01/10 10:05:21;;;;;;;11.25;9.20;;;3.90;99.90;;;;;;5074994;28;20035;-69
2022/01/10 10:07:48;;;;;;;13.40;10.27;;;3.90;99.90;;;;;;5074177;28;20040;-69
2022/01/10 10:10:15;;;;;;;15.10;11.30;;;3.90;99.90;;;;;;5056875;28;20067;-69
2022/01/10 10:12:47;;;;;;;16.42;11.43;;;3.90;99.90;;;;;;5056401;28;20377;-69
2022/01/10 10:15:16;;;;;;;15.60;11.48;;;3.90;99.90;;;;;;5075152;28;20028;-69
2022/01/10 10:17:44;;;;;;;16.40;12.35;;;4.00;99.90;;;;;;5074232;28;20028;-69
2022/01/10 10:20:16;;;;;;;16.05;12.65;;;4.00;99.90;;;;;;5074546;28;20029;-69
2022/01/10 10:22:44;;;;;;;17.52;13.00;;;4.00;99.90;;;;;;5074565;28;20039;-69
2022/01/10 10:25:11;;;;;;;14.40;12.02;;;4.00;99.90;;;;;;5074502;28;20085;-69
2022/01/10 10:27:44;;;;;;;19.55;14.18;;;4.00;99.90;;;;;;5074570;28;20032;-69
2022/01/10 10:30:14;;;;;;;24.90;14.25;;;4.00;99.90;;;;;;5074271;28;20363;-69
2022/01/10 10:32:40;;;;;;;18.13;14.20;;;4.00;99.90;;;;;;5073976;28;20048;-69
2022/01/10 10:35:08;;;;;;;19.90;14.65;;;4.00;99.90;;;;;;5074340;28;20250;-69
2022/01/10 10:37:38;;;;;;;20.40;15.15;;;4.00;99.90;;;;;;5074388;28;20116;-69
2022/01/10 10:40:08;;;;;;;16.48;13.55;;;4.10;99.90;;;;;;5074105;28;20017;-69
2022/01/10 10:42:37;;;;;;;20.40;14.80;;;4.10;99.90;;;;;;5074549;28;20032;-70
2022/01/10 10:45:08;;;;;;;18.80;14.98;;;4.10;99.90;;;;;;5073927;28;20027;-69
2022/01/10 10:47:36;;;;;;;18.83;14.48;;;4.10;99.90;;;;;;5074378;28;20131;-69
2022/01/10 10:50:05;;;;;;;19.10;14.73;;;4.10;99.90;;;;;;5073724;28;20480;-68
2022/01/10 10:52:35;;;;;;;17.67;14.57;;;4.10;99.90;;;;;;5074072;28;20067;-70
2022/01/10 10:55:23;;;;;;;20.48;15.02;;;4.10;99.90;;;;;;5073546;28;20048;-69
2022/01/10 10:57:50;;;;;;;21.45;15.60;;;4.10;99.90;;;;;;5076771;28;20534;-69
2022/01/10 11:00:16;;;;;;;23.48;16.42;;;4.10;99.90;;;;;;5078013;28;20033;-70
2022/01/10 11:02:42;;;;;;;22.27;14.82;;;4.10;99.90;;;;;;5077548;28;20421;-69
2022/01/10 11:05:08;;;;;;;21.40;15.02;;;4.10;99.90;;;;;;5075121;28;20450;-70
2022/01/10 11:07:35;;;;;;;20.15;16.55;;;4.10;99.90;;;;;;5073661;28;20029;-70
2022/01/10 11:10:04;;;;;;;20.38;14.77;;;4.10;99.90;;;;;;5073274;28;20032;-72
2022/01/10 11:12:33;;;;;;;21.30;15.68;;;4.10;99.90;;;;;;5075352;28;20055;-69
2022/01/10 11:14:59;;;;;;;21.85;16.30;;;4.10;99.90;;;;;;5074736;28;20020;-70
2022/01/10 11:17:26;;;;;;;23.92;15.63;;;4.20;99.90;;;;;;5073761;28;20434;-70
2022/01/10 11:20:15;;;;;;;21.42;15.52;;;4.20;99.90;;;;;;5072460;28;20029;-69
2022/01/10 11:22:42;;;;;;;22.55;15.25;;;4.20;99.90;;;;;;5073646;28;20024;-70
2022/01/10 11:25:27;;;;;;;19.80;15.18;;;4.20;99.90;;;;;;5073413;28;20028;-70
2022/01/10 11:28:07;;;;;;;21.50;15.27;;;4.20;99.90;;;;;;5072671;28;20063;-70
2022/01/10 11:30:45;;;;;;;21.02;14.95;;;4.20;99.90;;;;;;5073712;28;20105;-69
2022/01/10 11:33:21;;;;;;;18.55;14.35;;;4.20;99.90;;;;;;5075331;28;20473;-68
2022/01/10 11:35:52;;;;;;;18.10;14.25;;;4.20;99.90;;;;;;5072968;28;20318;-69
2022/01/10 11:38:38;;;;;;;20.55;15.05;;;4.20;99.90;;;;;;5073437;28;20060;-69
2022/01/10 11:41:13;;;;;;;18.15;13.77;;;4.20;99.90;;;;;;5072892;28;20239;-70
2022/01/10 11:43:56;;;;;;;18.58;13.98;;;4.20;99.90;;;;;;5073029;28;20031;-69
2022/01/10 11:46:37;;;;;;;19.50;14.98;;;4.20;99.90;;;;;;5073112;28;20032;-69
2022/01/10 11:49:07;;;;;;;19.58;14.25;;;4.20;99.90;;;;;;5072853;28;20029;-69
2022/01/10 11:51:34;;;;;;;17.23;14.15;;;4.20;99.90;;;;;;5073073;28;20032;-68
2022/01/10 11:54:26;;;;;;;19.05;14.35;;;4.20;99.90;;;;;;5072153;28;20503;-69
2022/01/10 11:56:54;;;;;;;;;;;4.10;99.90;;;;;;5064231;28;20052;-70
2022/01/10 11:59:19;;;;;;;17.38;13.73;;;4.10;99.90;;;;;;5072821;28;20373;-70
2022/01/10 12:01:51;;;;;;;18.67;14.82;;;4.20;99.90;;;;;;5054675;28;20064;-69
2022/01/10 12:04:19;;;;;;;19.65;15.57;;;4.10;99.90;;;;;;5072684;28;20021;-70
2022/01/10 12:06:45;;;;;;;20.65;15.38;;;4.10;99.90;;;;;;5054810;28;20029;-69
2022/01/10 12:09:11;;;;;;;18.75;14.23;;;4.10;99.90;;;;;;5072353;28;20116;-70
2022/01/10 12:11:39;;;;;;;19.30;15.55;;;4.10;99.90;;;;;;5072554;28;20032;-68
2022/01/10 12:14:06;;;;;;;17.30;14.05;;;4.10;99.90;;;;;;5072055;28;20077;-69
2022/01/10 12:16:33;;;;;;;20.95;16.05;;;4.10;99.90;;;;;;5072135;28;20021;-69
2022/01/10 12:18:59;;;;;;;20.88;15.50;;;4.10;99.90;;;;;;5072156;28;20032;-69
2022/01/10 12:21:26;;;;;;;20.88;16.58;;;4.10;99.90;;;;;;5072595;28;20037;-70
2022/01/10 12:23:52;;;;;;;20.25;15.38;;;4.10;99.90;;;;;;5054015;28;20029;-69
2022/01/10 12:26:24;;;;;;;17.33;14.70;;;4.10;99.90;;;;;;5072233;28;20521;-69
2022/01/10 12:28:56;;;;;;;17.75;13.80;;;4.10;99.90;;;;;;5071971;28;20035;-69
2022/01/10 12:34:10;;;;;;;16.83;14.25;;;4.20;99.90;;;;;;5071967;28;20035;-69
2022/01/10 12:36:38;;;;;;;21.90;14.75;;;4.20;99.90;;;;;;5072308;28;20025;-71
2022/01/10 12:39:09;;;;;;;17.27;14.25;;;4.20;99.90;;;;;;5071570;28;20075;-69
2022/01/10 12:41:35;;;;;;;18.70;14.05;;;4.20;99.90;;;;;;5072544;28;20032;-69
2022/01/10 12:44:01;;;;;;;16.75;13.73;;;4.20;99.90;;;;;;5071852;28;20393;-70
2022/01/10 12:46:31;;;;;;;17.45;14.57;;;4.20;99.90;;;;;;5072416;28;20032;-69
2022/01/10 12:49:04;;;;;;;18.08;14.73;;;4.20;99.90;;;;;;5071468;28;20028;-69
2022/01/10 12:51:51;;;;;;;18.88;14.27;;;4.20;99.90;;;;;;5072548;28;20454;-69
2022/01/10 12:54:22;;;;;;;18.35;14.05;;;4.20;99.90;;;;;;5071953;28;20028;-70
2022/01/10 12:56:49;;;;;;;19.58;14.88;;;4.20;99.90;;;;;;5072434;28;20410;-70
2022/01/10 12:59:17;;;;;;;19.42;14.55;;;4.30;99.90;;;;;;5072015;28;20041;-69
2022/01/10 13:01:44;;;;;;;18.75;15.25;;;4.30;99.90;;;;;;5071921;28;20036;-69